sensor_id;sensor_type;location;lat;lon;timestamp;pressure;altitude;pressure_sealevel;temperature;humidity
35676;BME280;21790;42.668;23.298;2024-01-16T06:07:50;93860.69;;;11.19;49.77
35676;BME280;21790;42.668;23.298;2024-01-16T06:10:28;93861.06;;;11.52;45.19
35676;BME280;21790;42.668;23.298;2024-01-16T06:13:06;93861.81;;;11.27;42.25
35676;BME280;21790;42.668;23.298;2024-01-16T06:15:44;93880.22;;;10.89;42.05
35676;BME280;21790;42.668;23.298;2024-01-16T06:24:38;93913.69;;;10.42;42.99
35676;BME280;21790;42.668;23.298;2024-01-16T06:38:33;93942.06;;;10.42;42.50
35676;BME280;21790;42.668;23.298;2024-01-16T06:41:14;93949.31;;;10.11;42.75
35676;BME280;21790;42.668;23.298;2024-01-16T06:43:42;93949.69;;;9.74;43.67
35676;BME280;21790;42.668;23.298;2024-01-16T06:46:31;93955.41;;;9.85;43.42
35676;BME280;21790;42.668;23.298;2024-01-16T06:48:58;93974.41;;;9.69;42.97
35676;BME280;21790;42.668;23.298;2024-01-16T06:51:28;93973.19;;;9.99;42.51
35676;BME280;21790;42.668;23.298;2024-01-16T06:53:59;93977.69;;;9.96;41.90
35676;BME280;21790;42.668;23.298;2024-01-16T06:56:29;93951.78;;;9.64;42.62
35676;BME280;21790;42.668;23.298;2024-01-16T07:01:37;93966.59;;;9.67;41.74
35676;BME280;21790;42.668;23.298;2024-01-16T07:04:08;93969.81;;;9.65;41.42
35676;BME280;21790;42.668;23.298;2024-01-16T07:06:46;93995.28;;;9.84;41.79
35676;BME280;21790;42.668;23.298;2024-01-16T07:09:34;93974.72;;;9.71;41.71
35676;BME280;21790;42.668;23.298;2024-01-16T07:12:30;93985.00;;;9.85;41.25
35676;BME280;21790;42.668;23.298;2024-01-16T07:14:57;94024.06;;;9.69;41.94
35676;BME280;21790;42.668;23.298;2024-01-16T07:17:24;94018.22;;;9.52;42.19
35676;BME280;21790;42.668;23.298;2024-01-16T07:19:56;94034.56;;;9.55;42.44
35676;BME280;21790;42.668;23.298;2024-01-16T07:22:25;94049.50;;;9.49;42.34
35676;BME280;21790;42.668;23.298;2024-01-16T07:24:53;94042.19;;;9.60;42.00
35676;BME280;21790;42.668;23.298;2024-01-16T07:27:22;94060.94;;;9.56;41.81
35676;BME280;21790;42.668;23.298;2024-01-16T07:29:49;94062.41;;;9.43;41.87
35676;BME280;21790;42.668;23.298;2024-01-16T07:32:17;94064.81;;;9.50;41.48
35676;BME280;21790;42.668;23.298;2024-01-16T07:34:46;94080.59;;;9.49;41.88
35676;BME280;21790;42.668;23.298;2024-01-16T07:37:17;94088.91;;;9.40;41.89
35676;BME280;21790;42.668;23.298;2024-01-16T07:39:43;94090.91;;;9.40;42.09
35676;BME280;21790;42.668;23.298;2024-01-16T07:42:15;94091.56;;;9.35;42.10
35676;BME280;21790;42.668;23.298;2024-01-16T07:44:44;94095.97;;;9.41;42.21
35676;BME280;21790;42.668;23.298;2024-01-16T07:47:14;94104.78;;;9.54;41.77
35676;BME280;21790;42.668;23.298;2024-01-16T07:49:45;94103.00;;;9.66;41.76
35676;BME280;21790;42.668;23.298;2024-01-16T07:52:14;94103.19;;;9.62;41.77
35676;BME280;21790;42.668;23.298;2024-01-16T07:54:40;94109.41;;;9.72;41.35
35676;BME280;21790;42.668;23.298;2024-01-16T07:57:06;94122.75;;;9.74;41.64
35676;BME280;21790;42.668;23.298;2024-01-16T07:59:36;94121.38;;;9.69;41.55
35676;BME280;21790;42.668;23.298;2024-01-16T08:02:08;94136.69;;;9.46;42.36
35676;BME280;21790;42.668;23.298;2024-01-16T08:04:35;94144.75;;;9.59;41.87
35676;BME280;21790;42.668;23.298;2024-01-16T08:07:21;94148.44;;;9.80;41.57
35676;BME280;21790;42.668;23.298;2024-01-16T08:10:10;94148.91;;;9.54;42.09
35676;BME280;21790;42.668;23.298;2024-01-16T08:12:41;94158.56;;;9.50;42.19
35676;BME280;21790;42.668;23.298;2024-01-16T08:15:14;94153.06;;;9.50;41.96
35676;BME280;21790;42.668;23.298;2024-01-16T08:17:54;94165.06;;;9.71;41.84
35676;BME280;21790;42.668;23.298;2024-01-16T08:20:24;94172.22;;;9.77;42.01
35676;BME280;21790;42.668;23.298;2024-01-16T08:23:03;94181.53;;;9.56;42.46
35676;BME280;21790;42.668;23.298;2024-01-16T08:25:33;94192.25;;;9.87;41.67
35676;BME280;21790;42.668;23.298;2024-01-16T08:28:01;94186.50;;;9.76;41.63
35676;BME280;21790;42.668;23.298;2024-01-16T08:33:05;94204.63;;;9.68;41.59
35676;BME280;21790;42.668;23.298;2024-01-16T08:35:33;94215.69;;;9.58;41.64
35676;BME280;21790;42.668;23.298;2024-01-16T08:38:05;94222.75;;;9.92;40.82
35676;BME280;21790;42.668;23.298;2024-01-16T08:40:33;94201.53;;;9.75;41.17
35676;BME280;21790;42.668;23.298;2024-01-16T08:43:03;94228.38;;;9.98;40.42
35676;BME280;21790;42.668;23.298;2024-01-16T08:45:33;94244.63;;;9.96;40.55
35676;BME280;21790;42.668;23.298;2024-01-16T08:48:01;94230.97;;;10.01;40.06
35676;BME280;21790;42.668;23.298;2024-01-16T08:51:04;94245.81;;;10.04;40.83
35676;BME280;21790;42.668;23.298;2024-01-16T08:53:32;94239.38;;;9.74;40.35
35676;BME280;21790;42.668;23.298;2024-01-16T08:56:00;94248.44;;;9.75;40.56
35676;BME280;21790;42.668;23.298;2024-01-16T08:58:32;94259.00;;;10.09;40.30
35676;BME280;21790;42.668;23.298;2024-01-16T09:01:03;94249.91;;;9.85;40.55
35676;BME280;21790;42.668;23.298;2024-01-16T09:03:34;94247.94;;;10.09;39.96
35676;BME280;21790;42.668;23.298;2024-01-16T09:06:00;94238.81;;;9.94;40.48
35676;BME280;21790;42.668;23.298;2024-01-16T09:08:28;94254.41;;;10.06;40.15
35676;BME280;21790;42.668;23.298;2024-01-16T09:20:20;94263.50;;;9.64;40.55
35676;BME280;21790;42.668;23.298;2024-01-16T09:22:48;94266.53;;;9.66;39.96
35676;BME280;21790;42.668;23.298;2024-01-16T09:25:15;94267.16;;;9.71;40.28
35676;BME280;21790;42.668;23.298;2024-01-16T09:27:41;94274.66;;;9.70;40.47
35676;BME280;21790;42.668;23.298;2024-01-16T09:30:08;94285.59;;;9.88;39.76
35676;BME280;21790;42.668;23.298;2024-01-16T09:32:39;94274.09;;;9.90;39.78
35676;BME280;21790;42.668;23.298;2024-01-16T09:35:08;94278.78;;;9.75;40.02
35676;BME280;21790;42.668;23.298;2024-01-16T09:37:37;94272.66;;;9.71;40.21
35676;BME280;21790;42.668;23.298;2024-01-16T09:40:06;94262.88;;;9.93;39.65
35676;BME280;21790;42.668;23.298;2024-01-16T09:42:35;94262.69;;;10.06;39.48
35676;BME280;21790;42.668;23.298;2024-01-16T09:45:05;94267.72;;;10.17;39.44
35676;BME280;21790;42.668;23.298;2024-01-16T09:47:35;94275.25;;;10.40;38.89
35676;BME280;21790;42.668;23.298;2024-01-16T09:50:04;94270.72;;;10.28;39.03
35676;BME280;21790;42.668;23.298;2024-01-16T09:52:30;94286.22;;;10.49;39.09
35676;BME280;21790;42.668;23.298;2024-01-16T09:54:57;94288.69;;;10.71;38.63
35676;BME280;21790;42.668;23.298;2024-01-16T09:57:25;94285.59;;;10.93;38.79
35676;BME280;21790;42.668;23.298;2024-01-16T09:59:55;94272.63;;;10.99;38.51
35676;BME280;21790;42.668;23.298;2024-01-16T10:02:24;94261.78;;;10.95;38.05
35676;BME280;21790;42.668;23.298;2024-01-16T10:07:25;94257.56;;;10.85;38.38
35676;BME280;21790;42.668;23.298;2024-01-16T10:09:57;94264.75;;;11.06;37.72
35676;BME280;21790;42.668;23.298;2024-01-16T10:12:24;94258.91;;;11.04;37.38
35676;BME280;21790;42.668;23.298;2024-01-16T10:14:51;94261.91;;;10.77;38.51
35676;BME280;21790;42.668;23.298;2024-01-16T10:17:21;94253.94;;;10.94;37.67
35676;BME280;21790;42.668;23.298;2024-01-16T10:19:49;94270.56;;;11.38;37.69
35676;BME280;21790;42.668;23.298;2024-01-16T10:22:23;94280.31;;;11.48;37.32
35676;BME280;21790;42.668;23.298;2024-01-16T10:25:12;94283.72;;;11.57;36.25
35676;BME280;21790;42.668;23.298;2024-01-16T10:30:27;94270.84;;;11.25;36.62
35676;BME280;21790;42.668;23.298;2024-01-16T10:33:01;94269.56;;;10.97;37.18
35676;BME280;21790;42.668;23.298;2024-01-16T10:35:39;94272.28;;;11.06;37.25
35676;BME280;21790;42.668;23.298;2024-01-16T10:38:06;94268.16;;;11.01;37.68
35676;BME280;21790;42.668;23.298;2024-01-16T10:40:36;94280.38;;;11.09;37.76
35676;BME280;21790;42.668;23.298;2024-01-16T10:46:16;94286.97;;;11.85;37.03
35676;BME280;21790;42.668;23.298;2024-01-16T10:55:10;94260.44;;;11.93;36.10
35676;BME280;21790;42.668;23.298;2024-01-16T10:57:41;94262.91;;;11.91;35.98
35676;BME280;21790;42.668;23.298;2024-01-16T11:08:39;94277.44;;;11.86;35.15
35676;BME280;21790;42.668;23.298;2024-01-16T11:11:10;94277.81;;;11.64;35.49
35676;BME280;21790;42.668;23.298;2024-01-16T11:16:54;94300.81;;;11.85;35.58
35676;BME280;21790;42.668;23.298;2024-01-16T11:19:23;94283.44;;;11.99;35.46
35676;BME280;21790;42.668;23.298;2024-01-16T11:21:52;94291.94;;;11.52;36.25
35676;BME280;21790;42.668;23.298;2024-01-16T11:30:30;94285.03;;;11.03;37.66
35676;BME280;21790;42.668;23.298;2024-01-16T11:32:58;94278.72;;;11.03;37.11
35676;BME280;21790;42.668;23.298;2024-01-16T11:35:36;94282.78;;;11.31;37.11
35676;BME280;21790;42.668;23.298;2024-01-16T11:38:16;94291.28;;;11.42;36.96
35676;BME280;21790;42.668;23.298;2024-01-16T11:40:51;94291.41;;;10.95;37.26
35676;BME280;21790;42.668;23.298;2024-01-16T11:43:44;94293.75;;;10.87;37.75
35676;BME280;21790;42.668;23.298;2024-01-16T11:46:11;94289.75;;;10.73;37.78
35676;BME280;21790;42.668;23.298;2024-01-16T11:48:38;94302.00;;;10.58;37.84
35676;BME280;21790;42.668;23.298;2024-01-16T11:53:40;94312.47;;;10.92;37.75
35676;BME280;21790;42.668;23.298;2024-01-16T11:58:56;94279.22;;;10.39;38.36
35676;BME280;21790;42.668;23.298;2024-01-16T12:01:26;94314.44;;;10.77;38.48
35676;BME280;21790;42.668;23.298;2024-01-16T12:04:14;94309.97;;;10.56;38.38
35676;BME280;21790;42.668;23.298;2024-01-16T12:06:59;94333.59;;;10.80;38.11
35676;BME280;21790;42.668;23.298;2024-01-16T12:09:27;94330.94;;;10.86;37.97
35676;BME280;21790;42.668;23.298;2024-01-16T12:12:00;94332.31;;;10.90;37.04
35676;BME280;21790;42.668;23.298;2024-01-16T12:17:14;94348.69;;;10.94;37.32
35676;BME280;21790;42.668;23.298;2024-01-16T12:19:43;94321.97;;;10.91;37.02
35676;BME280;21790;42.668;23.298;2024-01-16T12:22:10;94322.84;;;10.59;37.18
35676;BME280;21790;42.668;23.298;2024-01-16T12:24:38;94336.38;;;10.57;37.79
35676;BME280;21790;42.668;23.298;2024-01-16T12:27:06;94334.88;;;10.70;37.68
35676;BME280;21790;42.668;23.298;2024-01-16T12:29:35;94332.84;;;10.80;37.83
35676;BME280;21790;42.668;23.298;2024-01-16T12:32:10;94343.75;;;10.98;37.87
35676;BME280;21790;42.668;23.298;2024-01-16T12:34:47;94350.00;;;10.84;37.76
35676;BME280;21790;42.668;23.298;2024-01-16T12:37:16;94347.94;;;10.70;37.60
35676;BME280;21790;42.668;23.298;2024-01-16T12:40:00;94319.25;;;10.20;38.09
35676;BME280;21790;42.668;23.298;2024-01-16T12:42:29;94356.06;;;10.07;37.66
35676;BME280;21790;42.668;23.298;2024-01-16T12:44:59;94366.44;;;9.80;38.32
35676;BME280;21790;42.668;23.298;2024-01-16T12:47:29;94357.84;;;9.87;38.23
35676;BME280;21790;42.668;23.298;2024-01-16T12:50:00;94335.91;;;9.83;38.26
35676;BME280;21790;42.668;23.298;2024-01-16T12:52:29;94352.56;;;10.07;38.19
35676;BME280;21790;42.668;23.298;2024-01-16T12:55:04;94353.56;;;10.28;37.88
35676;BME280;21790;42.668;23.298;2024-01-16T12:57:36;94340.75;;;10.39;37.80
35676;BME280;21790;42.668;23.298;2024-01-16T13:00:26;94350.16;;;10.33;37.57
35676;BME280;21790;42.668;23.298;2024-01-16T13:03:02;94356.66;;;10.21;38.42
35676;BME280;21790;42.668;23.298;2024-01-16T13:05:31;94345.56;;;10.30;37.92
35676;BME280;21790;42.668;23.298;2024-01-16T13:08:02;94366.78;;;10.47;37.77
35676;BME280;21790;42.668;23.298;2024-01-16T13:10:31;94368.72;;;10.32;37.62
35676;BME280;21790;42.668;23.298;2024-01-16T13:16:01;94372.50;;;10.44;37.82
35676;BME280;21790;42.668;23.298;2024-01-16T13:18:28;94389.16;;;10.26;38.04
35676;BME280;21790;42.668;23.298;2024-01-16T13:20:56;94384.56;;;10.56;37.92
35676;BME280;21790;42.668;23.298;2024-01-16T13:23:21;94395.63;;;10.56;37.82
35676;BME280;21790;42.668;23.298;2024-01-16T13:25:50;94381.59;;;10.68;37.84
35676;BME280;21790;42.668;23.298;2024-01-16T13:28:18;94388.81;;;10.66;37.56
35676;BME280;21790;42.668;23.298;2024-01-16T13:30:48;94370.88;;;10.61;36.95
35676;BME280;21790;42.668;23.298;2024-01-16T13:33:14;94385.22;;;10.51;37.19
35676;BME280;21790;42.668;23.298;2024-01-16T13:35:42;94378.72;;;10.30;37.46
35676;BME280;21790;42.668;23.298;2024-01-16T13:38:15;94383.56;;;10.44;37.31
35676;BME280;21790;42.668;23.298;2024-01-16T13:40:43;94393.84;;;10.43;36.88
35676;BME280;21790;42.668;23.298;2024-01-16T13:43:10;94395.38;;;10.44;37.29
35676;BME280;21790;42.668;23.298;2024-01-16T13:45:38;94390.66;;;10.36;37.58
35676;BME280;21790;42.668;23.298;2024-01-16T13:48:08;94394.03;;;10.64;37.48
35676;BME280;21790;42.668;23.298;2024-01-16T13:50:34;94396.28;;;10.74;37.25
35676;BME280;21790;42.668;23.298;2024-01-16T13:53:00;94392.78;;;10.65;37.58
35676;BME280;21790;42.668;23.298;2024-01-16T13:58:36;94395.50;;;10.50;37.74
35676;BME280;21790;42.668;23.298;2024-01-16T14:01:21;94400.88;;;10.44;37.49
35676;BME280;21790;42.668;23.298;2024-01-16T14:03:47;94407.09;;;10.30;37.63
35676;BME280;21790;42.668;23.298;2024-01-16T14:06:14;94404.94;;;10.34;37.55
35676;BME280;21790;42.668;23.298;2024-01-16T14:08:42;94403.72;;;10.35;37.78
35676;BME280;21790;42.668;23.298;2024-01-16T14:11:09;94398.31;;;10.41;37.43
35676;BME280;21790;42.668;23.298;2024-01-16T14:13:38;94399.09;;;10.32;37.32
35676;BME280;21790;42.668;23.298;2024-01-16T14:16:05;94409.19;;;10.44;37.21
35676;BME280;21790;42.668;23.298;2024-01-16T14:18:35;94416.28;;;10.36;37.28
35676;BME280;21790;42.668;23.298;2024-01-16T14:21:01;94424.81;;;10.47;36.87
35676;BME280;21790;42.668;23.298;2024-01-16T14:23:30;94428.88;;;10.28;37.17
35676;BME280;21790;42.668;23.298;2024-01-16T14:26:01;94422.47;;;10.04;37.38
35676;BME280;21790;42.668;23.298;2024-01-16T14:28:37;94436.91;;;10.17;37.55
35676;BME280;21790;42.668;23.298;2024-01-16T14:31:07;94443.19;;;10.08;37.51
35676;BME280;21790;42.668;23.298;2024-01-16T14:33:34;94428.44;;;10.21;37.31
35676;BME280;21790;42.668;23.298;2024-01-16T14:36:02;94432.28;;;10.14;37.32
35676;BME280;21790;42.668;23.298;2024-01-16T14:38:31;94420.84;;;9.97;37.91
35676;BME280;21790;42.668;23.298;2024-01-16T14:40:57;94437.97;;;10.11;37.73
35676;BME280;21790;42.668;23.298;2024-01-16T14:43:24;94423.44;;;9.92;38.13
35676;BME280;21790;42.668;23.298;2024-01-16T14:45:52;94442.28;;;10.02;37.79
35676;BME280;21790;42.668;23.298;2024-01-16T14:54:20;94447.31;;;10.04;38.13
35676;BME280;21790;42.668;23.298;2024-01-16T14:56:48;94454.59;;;9.92;38.42
35676;BME280;21790;42.668;23.298;2024-01-16T14:59:16;94454.09;;;10.03;38.26
35676;BME280;21790;42.668;23.298;2024-01-16T15:01:43;94462.53;;;9.90;38.39
35676;BME280;21790;42.668;23.298;2024-01-16T15:04:10;94463.47;;;9.87;38.63
35676;BME280;21790;42.668;23.298;2024-01-16T15:06:36;94466.69;;;9.86;38.70
35676;BME280;21790;42.668;23.298;2024-01-16T15:09:07;94470.81;;;9.99;38.22
35676;BME280;21790;42.668;23.298;2024-01-16T15:11:44;94477.41;;;9.93;38.68
35676;BME280;21790;42.668;23.298;2024-01-16T15:14:11;94478.50;;;9.86;38.57
35676;BME280;21790;42.668;23.298;2024-01-16T15:16:39;94475.91;;;9.74;39.14
35676;BME280;21790;42.668;23.298;2024-01-16T15:19:05;94482.06;;;9.59;39.31
35676;BME280;21790;42.668;23.298;2024-01-16T15:21:32;94471.31;;;9.52;39.52
35676;BME280;21790;42.668;23.298;2024-01-16T15:24:00;94480.19;;;9.65;39.30
35676;BME280;21790;42.668;23.298;2024-01-16T15:26:30;94480.53;;;9.58;39.38
35676;BME280;21790;42.668;23.298;2024-01-16T15:28:59;94483.28;;;9.58;39.35
35676;BME280;21790;42.668;23.298;2024-01-16T15:33:58;94479.75;;;9.40;39.32
35676;BME280;21790;42.668;23.298;2024-01-16T15:36:34;94511.16;;;9.51;39.80
35676;BME280;21790;42.668;23.298;2024-01-16T15:39:05;94508.53;;;9.66;39.54
35676;BME280;21790;42.668;23.298;2024-01-16T15:41:50;94506.88;;;9.69;39.41
35676;BME280;21790;42.668;23.298;2024-01-16T15:47:23;94506.25;;;9.46;39.82
35676;BME280;21790;42.668;23.298;2024-01-16T15:49:52;94501.34;;;9.32;39.92
35676;BME280;21790;42.668;23.298;2024-01-16T15:52:22;94510.22;;;9.45;39.69
35676;BME280;21790;42.668;23.298;2024-01-16T15:54:54;94500.41;;;9.35;40.16
35676;BME280;21790;42.668;23.298;2024-01-16T15:57:20;94512.09;;;9.48;39.83
35676;BME280;21790;42.668;23.298;2024-01-16T16:03:05;94522.19;;;9.51;39.62
35676;BME280;21790;42.668;23.298;2024-01-16T16:05:33;94518.66;;;9.42;39.38
35676;BME280;21790;42.668;23.298;2024-01-16T16:08:03;94515.91;;;9.33;39.63
35676;BME280;21790;42.668;23.298;2024-01-16T16:10:33;94512.94;;;9.00;39.97
35676;BME280;21790;42.668;23.298;2024-01-16T16:13:02;94522.75;;;9.10;40.06
35676;BME280;21790;42.668;23.298;2024-01-16T16:15:30;94521.94;;;9.00;40.19
35676;BME280;21790;42.668;23.298;2024-01-16T16:17:58;94527.16;;;8.98;40.07
35676;BME280;21790;42.668;23.298;2024-01-16T16:20:27;94521.16;;;8.91;39.88
35676;BME280;21790;42.668;23.298;2024-01-16T16:22:54;94521.59;;;8.89;40.34
35676;BME280;21790;42.668;23.298;2024-01-16T16:25:25;94518.53;;;8.78;40.18
35676;BME280;21790;42.668;23.298;2024-01-16T16:28:03;94518.22;;;8.85;40.33
35676;BME280;21790;42.668;23.298;2024-01-16T16:30:31;94529.13;;;8.89;40.01
35676;BME280;21790;42.668;23.298;2024-01-16T16:35:55;94520.47;;;8.68;40.27
35676;BME280;21790;42.668;23.298;2024-01-16T16:38:21;94532.47;;;8.84;39.82
35676;BME280;21790;42.668;23.298;2024-01-16T16:44:25;94532.16;;;8.81;40.00
35676;BME280;21790;42.668;23.298;2024-01-16T16:46:53;94519.31;;;8.48;40.33
35676;BME280;21790;42.668;23.298;2024-01-16T16:49:21;94531.13;;;8.57;40.36
35676;BME280;21790;42.668;23.298;2024-01-16T16:51:54;94530.50;;;8.53;40.58
35676;BME280;21790;42.668;23.298;2024-01-16T16:54:23;94531.91;;;8.58;40.03
35676;BME280;21790;42.668;23.298;2024-01-16T16:56:54;94527.94;;;8.59;40.29
35676;BME280;21790;42.668;23.298;2024-01-16T16:59:23;94538.16;;;8.58;40.33
35676;BME280;21790;42.668;23.298;2024-01-16T17:01:50;94544.72;;;8.52;40.12
35676;BME280;21790;42.668;23.298;2024-01-16T17:04:21;94546.69;;;8.51;40.29
35676;BME280;21790;42.668;23.298;2024-01-16T17:06:47;94536.88;;;8.41;40.38
35676;BME280;21790;42.668;23.298;2024-01-16T17:09:14;94542.50;;;8.37;40.46
35676;BME280;21790;42.668;23.298;2024-01-16T17:11:45;94545.78;;;8.45;40.37
35676;BME280;21790;42.668;23.298;2024-01-16T17:14:35;94547.44;;;8.43;40.28
35676;BME280;21790;42.668;23.298;2024-01-16T17:17:22;94536.06;;;8.31;39.94
35676;BME280;21790;42.668;23.298;2024-01-16T17:19:53;94540.47;;;8.29;40.01
35676;BME280;21790;42.668;23.298;2024-01-16T17:22:22;94539.13;;;8.33;39.95
35676;BME280;21790;42.668;23.298;2024-01-16T17:24:49;94547.88;;;8.19;40.45
35676;BME280;21790;42.668;23.298;2024-01-16T17:27:17;94530.28;;;8.38;39.97
35676;BME280;21790;42.668;23.298;2024-01-16T17:29:45;94535.38;;;8.49;39.63
35676;BME280;21790;42.668;23.298;2024-01-16T17:32:14;94533.59;;;8.55;39.70
35676;BME280;21790;42.668;23.298;2024-01-16T17:34:44;94548.81;;;8.47;40.67
35676;BME280;21790;42.668;23.298;2024-01-16T17:37:15;94550.78;;;8.37;40.94
35676;BME280;21790;42.668;23.298;2024-01-16T17:39:42;94553.19;;;8.35;40.86
35676;BME280;21790;42.668;23.298;2024-01-16T17:42:09;94556.78;;;8.45;40.70
35676;BME280;21790;42.668;23.298;2024-01-16T17:47:01;94561.81;;;8.25;41.24
35676;BME280;21790;42.668;23.298;2024-01-16T17:49:31;94559.47;;;8.14;41.79
35676;BME280;21790;42.668;23.298;2024-01-16T17:51:57;94552.03;;;8.24;41.45
35676;BME280;21790;42.668;23.298;2024-01-16T17:54:22;94561.28;;;8.30;41.53
35676;BME280;21790;42.668;23.298;2024-01-16T17:56:49;94550.16;;;8.33;41.60
35676;BME280;21790;42.668;23.298;2024-01-16T17:59:15;94559.59;;;8.11;41.61
35676;BME280;21790;42.668;23.298;2024-01-16T18:01:43;94565.25;;;8.29;41.54
35676;BME280;21790;42.668;23.298;2024-01-16T18:07:05;94567.53;;;8.09;42.46
35676;BME280;21790;42.668;23.298;2024-01-16T18:09:32;94571.38;;;8.11;42.50
35676;BME280;21790;42.668;23.298;2024-01-16T18:12:00;94569.69;;;7.92;42.67
35676;BME280;21790;42.668;23.298;2024-01-16T18:14:26;94566.84;;;7.74;42.98
35676;BME280;21790;42.668;23.298;2024-01-16T18:16:55;94568.44;;;7.84;43.07
35676;BME280;21790;42.668;23.298;2024-01-16T18:19:23;94565.09;;;7.89;43.06
35676;BME280;21790;42.668;23.298;2024-01-16T18:21:53;94558.69;;;7.70;43.37
35676;BME280;21790;42.668;23.298;2024-01-16T18:24:23;94549.53;;;7.51;43.21
35676;BME280;21790;42.668;23.298;2024-01-16T18:26:52;94574.16;;;7.55;43.30
35676;BME280;21790;42.668;23.298;2024-01-16T18:29:20;94558.75;;;7.57;43.37
35676;BME280;21790;42.668;23.298;2024-01-16T18:31:49;94572.69;;;7.63;43.26
35676;BME280;21790;42.668;23.298;2024-01-16T18:34:20;94568.00;;;7.85;42.78
35676;BME280;21790;42.668;23.298;2024-01-16T18:37:15;94570.84;;;8.25;42.21
35676;BME280;21790;42.668;23.298;2024-01-16T18:40:02;94559.81;;;7.60;43.37
35676;BME280;21790;42.668;23.298;2024-01-16T18:42:39;94561.78;;;7.94;42.87
35676;BME280;21790;42.668;23.298;2024-01-16T18:47:59;94570.63;;;7.54;43.88
35676;BME280;21790;42.668;23.298;2024-01-16T18:50:26;94574.53;;;7.66;43.35
35676;BME280;21790;42.668;23.298;2024-01-16T18:52:54;94582.16;;;7.62;43.87
35676;BME280;21790;42.668;23.298;2024-01-16T18:55:28;94583.22;;;7.65;43.66
35676;BME280;21790;42.668;23.298;2024-01-16T18:57:59;94596.72;;;7.84;43.08
35676;BME280;21790;42.668;23.298;2024-01-16T19:00:30;94595.13;;;7.96;42.63
35676;BME280;21790;42.668;23.298;2024-01-16T19:03:38;94604.63;;;7.82;43.07
35676;BME280;21790;42.668;23.298;2024-01-16T19:06:10;94601.19;;;7.56;43.61
35676;BME280;21790;42.668;23.298;2024-01-16T19:08:57;94606.41;;;7.76;43.69
35676;BME280;21790;42.668;23.298;2024-01-16T19:11:25;94571.19;;;7.49;43.74
35676;BME280;21790;42.668;23.298;2024-01-16T19:13:52;94599.94;;;7.36;44.44
35676;BME280;21790;42.668;23.298;2024-01-16T19:16:23;94599.38;;;7.28;44.33
35676;BME280;21790;42.668;23.298;2024-01-16T19:22:58;94589.41;;;7.69;43.75
35676;BME280;21790;42.668;23.298;2024-01-16T19:25:47;94594.69;;;7.63;43.50
35676;BME280;21790;42.668;23.298;2024-01-16T19:28:17;94589.97;;;7.64;43.91
35676;BME280;21790;42.668;23.298;2024-01-16T19:30:47;94593.88;;;7.75;43.31
35676;BME280;21790;42.668;23.298;2024-01-16T19:33:16;94593.59;;;7.61;43.63
35676;BME280;21790;42.668;23.298;2024-01-16T19:35:41;94593.53;;;7.39;44.16
35676;BME280;21790;42.668;23.298;2024-01-16T19:38:12;94596.44;;;7.23;44.26
35676;BME280;21790;42.668;23.298;2024-01-16T19:40:45;94597.19;;;7.36;44.00
35676;BME280;21790;42.668;23.298;2024-01-16T19:43:12;94597.47;;;7.50;43.70
35676;BME280;21790;42.668;23.298;2024-01-16T19:45:39;94595.50;;;7.51;43.68
35676;BME280;21790;42.668;23.298;2024-01-16T19:48:15;94591.63;;;7.48;43.84
35676;BME280;21790;42.668;23.298;2024-01-16T19:51:04;94596.94;;;7.77;43.36
35676;BME280;21790;42.668;23.298;2024-01-16T19:53:31;94596.00;;;7.93;42.94
35676;BME280;21790;42.668;23.298;2024-01-16T19:55:58;94597.38;;;7.76;42.81
35676;BME280;21790;42.668;23.298;2024-01-16T19:58:33;94593.00;;;7.78;43.02
35676;BME280;21790;42.668;23.298;2024-01-16T20:01:03;94606.06;;;7.40;43.99
35676;BME280;21790;42.668;23.298;2024-01-16T20:03:30;94600.44;;;7.43;43.75
35676;BME280;21790;42.668;23.298;2024-01-16T20:05:59;94601.41;;;7.62;42.77
35676;BME280;21790;42.668;23.298;2024-01-16T20:11:29;94603.81;;;7.60;43.08
35676;BME280;21790;42.668;23.298;2024-01-16T20:33:30;94630.81;;;7.27;43.95
35676;BME280;21790;42.668;23.298;2024-01-16T21:51:15;94704.91;;;6.93;44.68
35676;BME280;21790;42.668;23.298;2024-01-16T22:24:22;94672.91;;;6.73;44.88
35676;BME280;21790;42.668;23.298;2024-01-16T22:29:37;94670.97;;;6.45;45.69
35676;BME280;21790;42.668;23.298;2024-01-16T22:32:02;94661.97;;;6.45;45.51
35676;BME280;21790;42.668;23.298;2024-01-16T22:34:29;94660.84;;;6.29;45.62
35676;BME280;21790;42.668;23.298;2024-01-16T22:36:57;94663.69;;;6.26;45.95
35676;BME280;21790;42.668;23.298;2024-01-16T22:39:23;94652.47;;;6.20;45.98
35676;BME280;21790;42.668;23.298;2024-01-16T22:41:50;94657.44;;;6.25;46.20
35676;BME280;21790;42.668;23.298;2024-01-16T22:44:17;94643.28;;;6.40;45.80
35676;BME280;21790;42.668;23.298;2024-01-16T22:46:43;94645.38;;;6.36;45.57
35676;BME280;21790;42.668;23.298;2024-01-16T22:49:11;94644.13;;;6.24;46.16
35676;BME280;21790;42.668;23.298;2024-01-16T22:51:41;94642.53;;;6.39;45.79
35676;BME280;21790;42.668;23.298;2024-01-16T22:54:08;94637.81;;;6.40;45.42
35676;BME280;21790;42.668;23.298;2024-01-16T22:56:34;94641.75;;;6.26;45.35
35676;BME280;21790;42.668;23.298;2024-01-16T23:01:36;94622.47;;;6.13;45.54
35676;BME280;21790;42.668;23.298;2024-01-16T23:04:03;94624.38;;;6.16;45.46
35676;BME280;21790;42.668;23.298;2024-01-16T23:06:28;94627.72;;;6.08;45.93
35676;BME280;21790;42.668;23.298;2024-01-16T23:08:55;94622.78;;;6.03;46.31
35676;BME280;21790;42.668;23.298;2024-01-16T23:11:22;94630.78;;;5.97;46.25
35676;BME280;21790;42.668;23.298;2024-01-16T23:13:49;94640.72;;;6.20;45.84
35676;BME280;21790;42.668;23.298;2024-01-16T23:16:14;94639.81;;;6.10;45.93
35676;BME280;21790;42.668;23.298;2024-01-16T23:18:42;94624.63;;;6.35;45.29
35676;BME280;21790;42.668;23.298;2024-01-16T23:21:14;94633.41;;;6.29;45.67
35676;BME280;21790;42.668;23.298;2024-01-16T23:23:43;94630.94;;;6.19;45.92
35676;BME280;21790;42.668;23.298;2024-01-16T23:26:13;94621.63;;;6.16;46.27
35676;BME280;21790;42.668;23.298;2024-01-16T23:28:40;94624.38;;;6.16;45.80